sensor_id;sensor_type;location;lat;lon;timestamp;P1;durP1;ratioP1;P2;durP2;ratioP2
22363;SDS011;11349;53.412;-1.328;2023-11-21T00:01:17;2.97;;;0.60;;
22363;SDS011;11349;53.412;-1.328;2023-11-21T00:03:43;2.35;;;0.40;;
22363;SDS011;11349;53.412;-1.328;2023-11-21T00:06:09;1.25;;;0.40;;
22363;SDS011;11349;53.412;-1.328;2023-11-21T00:08:35;3.72;;;0.88;;
22363;SDS011;11349;53.412;-1.328;2023-11-21T00:11:01;3.28;;;0.75;;
22363;SDS011;11349;53.412;-1.328;2023-11-21T00:13:30;2.88;;;0.60;;
22363;SDS011;11349;53.412;-1.328;2023-11-21T00:15:56;1.80;;;0.70;;
22363;SDS011;11349;53.412;-1.328;2023-11-21T00:18:23;2.60;;;0.80;;
22363;SDS011;11349;53.412;-1.328;2023-11-21T00:20:48;2.67;;;0.55;;
22363;SDS011;11349;53.412;-1.328;2023-11-21T00:23:14;7.63;;;1.10;;
22363;SDS011;11349;53.412;-1.328;2023-11-21T00:25:40;1.77;;;0.55;;
22363;SDS011;11349;53.412;-1.328;2023-11-21T00:28:05;3.08;;;0.77;;
22363;SDS011;11349;53.412;-1.328;2023-11-21T00:30:31;4.53;;;1.48;;
22363;SDS011;11349;53.412;-1.328;2023-11-21T00:32:57;4.80;;;1.02;;
22363;SDS011;11349;53.412;-1.328;2023-11-21T00:35:23;2.03;;;0.60;;
22363;SDS011;11349;53.412;-1.328;2023-11-21T00:37:49;1.92;;;0.60;;
22363;SDS011;11349;53.412;-1.328;2023-11-21T00:40:14;3.53;;;0.77;;
22363;SDS011;11349;53.412;-1.328;2023-11-21T00:42:41;2.10;;;0.50;;
22363;SDS011;11349;53.412;-1.328;2023-11-21T00:45:07;2.70;;;0.60;;
22363;SDS011;11349;53.412;-1.328;2023-11-21T00:47:33;1.63;;;0.43;;
22363;SDS011;11349;53.412;-1.328;2023-11-21T00:49:59;3.30;;;0.50;;
22363;SDS011;11349;53.412;-1.328;2023-11-21T00:52:24;1.83;;;0.60;;
22363;SDS011;11349;53.412;-1.328;2023-11-21T00:54:51;3.45;;;0.60;;
22363;SDS011;11349;53.412;-1.328;2023-11-21T00:57:16;2.08;;;0.63;;
22363;SDS011;11349;53.412;-1.328;2023-11-21T00:59:42;1.33;;;0.40;;
22363;SDS011;11349;53.412;-1.328;2023-11-21T01:02:08;4.35;;;0.75;;
22363;SDS011;11349;53.412;-1.328;2023-11-21T01:04:35;1.25;;;0.60;;
22363;SDS011;11349;53.412;-1.328;2023-11-21T01:07:01;3.15;;;0.77;;
22363;SDS011;11349;53.412;-1.328;2023-11-21T01:09:27;2.58;;;0.60;;
22363;SDS011;11349;53.412;-1.328;2023-11-21T01:11:53;2.35;;;0.77;;
22363;SDS011;11349;53.412;-1.328;2023-11-21T01:14:19;1.85;;;0.52;;
22363;SDS011;11349;53.412;-1.328;2023-11-21T01:16:44;3.28;;;0.63;;
22363;SDS011;11349;53.412;-1.328;2023-11-21T01:19:10;7.85;;;0.73;;
22363;SDS011;11349;53.412;-1.328;2023-11-21T01:21:36;6.35;;;0.70;;
22363;SDS011;11349;53.412;-1.328;2023-11-21T01:24:02;3.40;;;0.70;;
22363;SDS011;11349;53.412;-1.328;2023-11-21T01:26:28;3.83;;;0.80;;
22363;SDS011;11349;53.412;-1.328;2023-11-21T01:28:54;3.53;;;1.08;;
22363;SDS011;11349;53.412;-1.328;2023-11-21T01:31:20;3.35;;;0.60;;
22363;SDS011;11349;53.412;-1.328;2023-11-21T01:33:46;3.13;;;0.80;;
22363;SDS011;11349;53.412;-1.328;2023-11-21T01:36:11;3.80;;;0.65;;
22363;SDS011;11349;53.412;-1.328;2023-11-21T01:38:37;2.70;;;0.63;;
22363;SDS011;11349;53.412;-1.328;2023-11-21T01:41:03;2.00;;;0.68;;
22363;SDS011;11349;53.412;-1.328;2023-11-21T01:43:29;5.18;;;0.68;;
22363;SDS011;11349;53.412;-1.328;2023-11-21T01:45:56;3.47;;;0.85;;
22363;SDS011;11349;53.412;-1.328;2023-11-21T01:48:23;1.38;;;0.52;;
22363;SDS011;11349;53.412;-1.328;2023-11-21T01:50:50;2.65;;;0.73;;
22363;SDS011;11349;53.412;-1.328;2023-11-21T01:53:16;5.47;;;0.75;;
22363;SDS011;11349;53.412;-1.328;2023-11-21T01:55:41;16.63;;;3.08;;
22363;SDS011;11349;53.412;-1.328;2023-11-21T01:58:08;6.22;;;0.82;;
22363;SDS011;11349;53.412;-1.328;2023-11-21T02:00:35;5.82;;;1.20;;
22363;SDS011;11349;53.412;-1.328;2023-11-21T02:03:00;1.67;;;0.52;;
22363;SDS011;11349;53.412;-1.328;2023-11-21T02:05:27;2.75;;;0.90;;
22363;SDS011;11349;53.412;-1.328;2023-11-21T02:07:54;4.13;;;0.60;;
22363;SDS011;11349;53.412;-1.328;2023-11-21T02:10:21;4.38;;;0.80;;
22363;SDS011;11349;53.412;-1.328;2023-11-21T02:12:50;3.15;;;0.52;;
22363;SDS011;11349;53.412;-1.328;2023-11-21T02:15:17;4.13;;;0.68;;
22363;SDS011;11349;53.412;-1.328;2023-11-21T02:17:46;2.95;;;0.60;;
22363;SDS011;11349;53.412;-1.328;2023-11-21T02:20:16;5.53;;;1.08;;
22363;SDS011;11349;53.412;-1.328;2023-11-21T02:22:50;4.90;;;0.65;;
22363;SDS011;11349;53.412;-1.328;2023-11-21T02:25:27;3.70;;;0.85;;
22363;SDS011;11349;53.412;-1.328;2023-11-21T02:28:00;3.30;;;0.57;;
22363;SDS011;11349;53.412;-1.328;2023-11-21T02:30:27;5.60;;;0.73;;
22363;SDS011;11349;53.412;-1.328;2023-11-21T02:32:54;3.45;;;0.65;;
22363;SDS011;11349;53.412;-1.328;2023-11-21T02:35:21;2.22;;;0.50;;
22363;SDS011;11349;53.412;-1.328;2023-11-21T02:37:47;1.77;;;0.57;;
22363;SDS011;11349;53.412;-1.328;2023-11-21T02:40:14;2.83;;;0.50;;
22363;SDS011;11349;53.412;-1.328;2023-11-21T02:42:51;3.33;;;0.65;;
22363;SDS011;11349;53.412;-1.328;2023-11-21T02:45:18;3.10;;;0.88;;
22363;SDS011;11349;53.412;-1.328;2023-11-21T02:47:46;0.88;;;0.30;;
22363;SDS011;11349;53.412;-1.328;2023-11-21T02:50:12;2.42;;;0.32;;
22363;SDS011;11349;53.412;-1.328;2023-11-21T02:52:38;2.65;;;0.68;;
22363;SDS011;11349;53.412;-1.328;2023-11-21T02:55:05;2.10;;;0.68;;
22363;SDS011;11349;53.412;-1.328;2023-11-21T02:57:32;4.85;;;0.80;;
22363;SDS011;11349;53.412;-1.328;2023-11-21T02:59:58;2.58;;;0.45;;
22363;SDS011;11349;53.412;-1.328;2023-11-21T03:02:25;2.97;;;0.60;;
22363;SDS011;11349;53.412;-1.328;2023-11-21T03:04:50;3.47;;;0.60;;
22363;SDS011;11349;53.412;-1.328;2023-11-21T03:07:16;4.22;;;0.68;;
22363;SDS011;11349;53.412;-1.328;2023-11-21T03:09:45;3.47;;;1.85;;
22363;SDS011;11349;53.412;-1.328;2023-11-21T03:12:11;4.68;;;0.60;;
22363;SDS011;11349;53.412;-1.328;2023-11-21T03:14:37;3.17;;;0.55;;
22363;SDS011;11349;53.412;-1.328;2023-11-21T03:17:04;2.72;;;0.50;;
22363;SDS011;11349;53.412;-1.328;2023-11-21T03:19:31;1.98;;;0.50;;
22363;SDS011;11349;53.412;-1.328;2023-11-21T03:21:57;2.25;;;0.28;;
22363;SDS011;11349;53.412;-1.328;2023-11-21T03:24:23;1.08;;;0.32;;
22363;SDS011;11349;53.412;-1.328;2023-11-21T03:26:50;2.28;;;0.30;;
22363;SDS011;11349;53.412;-1.328;2023-11-21T03:29:16;2.53;;;0.40;;
22363;SDS011;11349;53.412;-1.328;2023-11-21T03:31:43;1.30;;;0.38;;
22363;SDS011;11349;53.412;-1.328;2023-11-21T03:34:15;1.35;;;0.30;;
22363;SDS011;11349;53.412;-1.328;2023-11-21T03:36:53;0.82;;;0.30;;
22363;SDS011;11349;53.412;-1.328;2023-11-21T03:39:22;1.45;;;0.30;;
22363;SDS011;11349;53.412;-1.328;2023-11-21T03:41:50;1.55;;;0.30;;
22363;SDS011;11349;53.412;-1.328;2023-11-21T03:44:17;0.85;;;0.50;;
22363;SDS011;11349;53.412;-1.328;2023-11-21T03:46:43;1.13;;;0.30;;
22363;SDS011;11349;53.412;-1.328;2023-11-21T03:49:09;1.92;;;0.55;;
22363;SDS011;11349;53.412;-1.328;2023-11-21T03:51:36;1.13;;;0.20;;
22363;SDS011;11349;53.412;-1.328;2023-11-21T03:54:02;1.80;;;0.30;;
22363;SDS011;11349;53.412;-1.328;2023-11-21T03:56:28;0.85;;;0.15;;
22363;SDS011;11349;53.412;-1.328;2023-11-21T03:58:54;1.63;;;0.40;;
22363;SDS011;11349;53.412;-1.328;2023-11-21T04:01:20;1.13;;;0.20;;
22363;SDS011;11349;53.412;-1.328;2023-11-21T04:03:49;1.42;;;0.30;;
22363;SDS011;11349;53.412;-1.328;2023-11-21T04:06:16;4.90;;;0.40;;
22363;SDS011;11349;53.412;-1.328;2023-11-21T04:08:44;0.13;;;0.00;;
22363;SDS011;11349;53.412;-1.328;2023-11-21T04:11:10;0.80;;;0.10;;
22363;SDS011;11349;53.412;-1.328;2023-11-21T04:13:40;0.43;;;0.10;;
22363;SDS011;11349;53.412;-1.328;2023-11-21T04:16:07;1.92;;;0.45;;
22363;SDS011;11349;53.412;-1.328;2023-11-21T04:18:35;1.83;;;0.20;;
22363;SDS011;11349;53.412;-1.328;2023-11-21T04:21:01;0.68;;;0.20;;
22363;SDS011;11349;53.412;-1.328;2023-11-21T04:23:28;1.50;;;0.30;;
22363;SDS011;11349;53.412;-1.328;2023-11-21T04:25:55;0.95;;;0.30;;
22363;SDS011;11349;53.412;-1.328;2023-11-21T04:28:22;2.13;;;0.28;;
22363;SDS011;11349;53.412;-1.328;2023-11-21T04:30:49;0.50;;;0.20;;
22363;SDS011;11349;53.412;-1.328;2023-11-21T04:33:15;0.77;;;0.22;;
22363;SDS011;11349;53.412;-1.328;2023-11-21T04:35:41;0.98;;;0.10;;
22363;SDS011;11349;53.412;-1.328;2023-11-21T04:38:07;0.77;;;0.22;;
22363;SDS011;11349;53.412;-1.328;2023-11-21T04:40:33;1.40;;;0.15;;
22363;SDS011;11349;53.412;-1.328;2023-11-21T04:42:58;2.45;;;0.28;;
22363;SDS011;11349;53.412;-1.328;2023-11-21T04:45:24;0.90;;;0.20;;
22363;SDS011;11349;53.412;-1.328;2023-11-21T04:47:50;0.47;;;0.10;;
22363;SDS011;11349;53.412;-1.328;2023-11-21T04:50:17;1.08;;;0.40;;
22363;SDS011;11349;53.412;-1.328;2023-11-21T04:52:44;0.80;;;0.28;;
22363;SDS011;11349;53.412;-1.328;2023-11-21T04:55:09;2.17;;;0.20;;
22363;SDS011;11349;53.412;-1.328;2023-11-21T04:57:39;3.05;;;0.32;;
22363;SDS011;11349;53.412;-1.328;2023-11-21T05:00:08;2.58;;;0.45;;
22363;SDS011;11349;53.412;-1.328;2023-11-21T05:02:35;0.55;;;0.30;;
22363;SDS011;11349;53.412;-1.328;2023-11-21T05:05:01;0.80;;;0.50;;
22363;SDS011;11349;53.412;-1.328;2023-11-21T05:07:27;1.75;;;0.43;;
22363;SDS011;11349;53.412;-1.328;2023-11-21T05:09:55;1.90;;;0.50;;
22363;SDS011;11349;53.412;-1.328;2023-11-21T05:12:21;1.25;;;0.50;;
22363;SDS011;11349;53.412;-1.328;2023-11-21T05:14:48;2.05;;;0.43;;
22363;SDS011;11349;53.412;-1.328;2023-11-21T05:17:14;1.35;;;0.35;;
22363;SDS011;11349;53.412;-1.328;2023-11-21T05:19:40;4.18;;;1.02;;
22363;SDS011;11349;53.412;-1.328;2023-11-21T05:22:06;2.28;;;0.30;;
22363;SDS011;11349;53.412;-1.328;2023-11-21T05:24:33;0.98;;;0.30;;
22363;SDS011;11349;53.412;-1.328;2023-11-21T05:27:00;0.60;;;0.20;;
22363;SDS011;11349;53.412;-1.328;2023-11-21T05:29:25;1.67;;;0.70;;
22363;SDS011;11349;53.412;-1.328;2023-11-21T05:31:52;1.05;;;0.30;;
22363;SDS011;11349;53.412;-1.328;2023-11-21T05:34:18;0.80;;;0.30;;
22363;SDS011;11349;53.412;-1.328;2023-11-21T05:36:45;2.22;;;0.52;;
22363;SDS011;11349;53.412;-1.328;2023-11-21T05:39:11;1.50;;;0.35;;
22363;SDS011;11349;53.412;-1.328;2023-11-21T05:41:37;1.92;;;0.30;;
22363;SDS011;11349;53.412;-1.328;2023-11-21T05:44:03;1.92;;;0.50;;
22363;SDS011;11349;53.412;-1.328;2023-11-21T05:46:28;1.85;;;0.52;;
22363;SDS011;11349;53.412;-1.328;2023-11-21T05:48:54;2.22;;;0.55;;
22363;SDS011;11349;53.412;-1.328;2023-11-21T05:51:20;1.48;;;0.35;;
22363;SDS011;11349;53.412;-1.328;2023-11-21T05:53:46;2.38;;;0.40;;
22363;SDS011;11349;53.412;-1.328;2023-11-21T05:56:11;2.05;;;0.50;;
22363;SDS011;11349;53.412;-1.328;2023-11-21T05:58:38;2.35;;;0.68;;
22363;SDS011;11349;53.412;-1.328;2023-11-21T06:01:05;2.70;;;1.10;;
22363;SDS011;11349;53.412;-1.328;2023-11-21T06:03:34;1.80;;;0.60;;
22363;SDS011;11349;53.412;-1.328;2023-11-21T06:06:00;5.50;;;0.70;;
22363;SDS011;11349;53.412;-1.328;2023-11-21T06:08:26;3.67;;;0.70;;
22363;SDS011;11349;53.412;-1.328;2023-11-21T06:10:51;4.07;;;0.70;;
22363;SDS011;11349;53.412;-1.328;2023-11-21T06:13:17;2.25;;;0.68;;
22363;SDS011;11349;53.412;-1.328;2023-11-21T06:15:49;3.47;;;0.70;;
22363;SDS011;11349;53.412;-1.328;2023-11-21T06:18:17;3.13;;;0.50;;
22363;SDS011;11349;53.412;-1.328;2023-11-21T06:20:46;3.75;;;0.60;;
22363;SDS011;11349;53.412;-1.328;2023-11-21T06:23:12;2.22;;;0.73;;
22363;SDS011;11349;53.412;-1.328;2023-11-21T06:25:39;3.47;;;0.60;;
22363;SDS011;11349;53.412;-1.328;2023-11-21T06:28:05;2.08;;;0.60;;
22363;SDS011;11349;53.412;-1.328;2023-11-21T06:30:31;6.15;;;0.68;;
22363;SDS011;11349;53.412;-1.328;2023-11-21T06:32:57;4.82;;;0.63;;
22363;SDS011;11349;53.412;-1.328;2023-11-21T06:35:22;4.32;;;1.13;;
22363;SDS011;11349;53.412;-1.328;2023-11-21T06:37:48;3.00;;;0.60;;
22363;SDS011;11349;53.412;-1.328;2023-11-21T06:40:14;4.18;;;0.68;;
22363;SDS011;11349;53.412;-1.328;2023-11-21T06:42:40;2.67;;;0.50;;
22363;SDS011;11349;53.412;-1.328;2023-11-21T06:45:06;3.58;;;0.63;;
22363;SDS011;11349;53.412;-1.328;2023-11-21T06:47:33;3.13;;;0.70;;
22363;SDS011;11349;53.412;-1.328;2023-11-21T06:49:59;3.03;;;0.85;;
22363;SDS011;11349;53.412;-1.328;2023-11-21T06:52:25;3.50;;;0.95;;
22363;SDS011;11349;53.412;-1.328;2023-11-21T06:54:51;2.70;;;0.85;;
22363;SDS011;11349;53.412;-1.328;2023-11-21T06:57:17;3.30;;;0.80;;
22363;SDS011;11349;53.412;-1.328;2023-11-21T06:59:43;1.95;;;0.63;;
22363;SDS011;11349;53.412;-1.328;2023-11-21T07:02:09;3.03;;;0.70;;
22363;SDS011;11349;53.412;-1.328;2023-11-21T07:04:35;4.38;;;0.70;;
22363;SDS011;11349;53.412;-1.328;2023-11-21T07:07:02;4.68;;;0.90;;
22363;SDS011;11349;53.412;-1.328;2023-11-21T07:09:28;3.70;;;0.88;;
22363;SDS011;11349;53.412;-1.328;2023-11-21T07:11:54;4.65;;;1.00;;
22363;SDS011;11349;53.412;-1.328;2023-11-21T07:14:20;4.18;;;0.90;;
22363;SDS011;11349;53.412;-1.328;2023-11-21T07:16:47;2.55;;;0.95;;
22363;SDS011;11349;53.412;-1.328;2023-11-21T07:19:13;2.60;;;0.95;;
22363;SDS011;11349;53.412;-1.328;2023-11-21T07:21:39;2.83;;;1.00;;
22363;SDS011;11349;53.412;-1.328;2023-11-21T07:24:05;4.22;;;1.02;;
22363;SDS011;11349;53.412;-1.328;2023-11-21T07:26:32;2.15;;;0.65;;
22363;SDS011;11349;53.412;-1.328;2023-11-21T07:28:59;7.93;;;1.50;;
22363;SDS011;11349;53.412;-1.328;2023-11-21T07:31:25;4.50;;;0.93;;
22363;SDS011;11349;53.412;-1.328;2023-11-21T07:33:51;3.90;;;0.90;;
22363;SDS011;11349;53.412;-1.328;2023-11-21T07:36:18;5.10;;;1.48;;
22363;SDS011;11349;53.412;-1.328;2023-11-21T07:38:45;5.43;;;1.00;;
22363;SDS011;11349;53.412;-1.328;2023-11-21T07:41:11;3.90;;;1.15;;
22363;SDS011;11349;53.412;-1.328;2023-11-21T07:43:40;6.03;;;1.55;;
22363;SDS011;11349;53.412;-1.328;2023-11-21T07:46:09;6.40;;;1.20;;
22363;SDS011;11349;53.412;-1.328;2023-11-21T07:48:37;4.75;;;0.90;;
22363;SDS011;11349;53.412;-1.328;2023-11-21T07:51:04;3.65;;;1.00;;
22363;SDS011;11349;53.412;-1.328;2023-11-21T07:53:30;6.30;;;1.17;;
22363;SDS011;11349;53.412;-1.328;2023-11-21T07:55:56;3.65;;;1.10;;
22363;SDS011;11349;53.412;-1.328;2023-11-21T07:58:23;5.38;;;1.35;;
22363;SDS011;11349;53.412;-1.328;2023-11-21T08:00:49;3.90;;;1.58;;
22363;SDS011;11349;53.412;-1.328;2023-11-21T08:03:16;2.88;;;1.08;;
22363;SDS011;11349;53.412;-1.328;2023-11-21T08:05:42;7.78;;;1.40;;
22363;SDS011;11349;53.412;-1.328;2023-11-21T08:08:08;4.15;;;1.23;;
22363;SDS011;11349;53.412;-1.328;2023-11-21T08:10:34;6.15;;;1.30;;
22363;SDS011;11349;53.412;-1.328;2023-11-21T08:13:04;5.25;;;1.52;;
22363;SDS011;11349;53.412;-1.328;2023-11-21T08:15:31;4.35;;;1.33;;
22363;SDS011;11349;53.412;-1.328;2023-11-21T08:17:57;6.10;;;1.55;;
22363;SDS011;11349;53.412;-1.328;2023-11-21T08:20:26;5.50;;;1.27;;
22363;SDS011;11349;53.412;-1.328;2023-11-21T08:22:51;5.47;;;1.52;;
22363;SDS011;11349;53.412;-1.328;2023-11-21T08:25:17;8.40;;;2.33;;
22363;SDS011;11349;53.412;-1.328;2023-11-21T08:27:45;4.30;;;1.95;;
22363;SDS011;11349;53.412;-1.328;2023-11-21T08:30:11;5.75;;;1.90;;
22363;SDS011;11349;53.412;-1.328;2023-11-21T08:32:39;8.38;;;1.92;;
22363;SDS011;11349;53.412;-1.328;2023-11-21T08:35:06;5.22;;;1.40;;
22363;SDS011;11349;53.412;-1.328;2023-11-21T08:37:32;7.18;;;1.85;;
22363;SDS011;11349;53.412;-1.328;2023-11-21T08:40:02;7.53;;;2.78;;
22363;SDS011;11349;53.412;-1.328;2023-11-21T08:42:29;9.10;;;1.85;;
22363;SDS011;11349;53.412;-1.328;2023-11-21T08:44:55;6.15;;;1.65;;
22363;SDS011;11349;53.412;-1.328;2023-11-21T08:47:24;6.38;;;1.40;;
22363;SDS011;11349;53.412;-1.328;2023-11-21T08:49:51;6.97;;;2.05;;
22363;SDS011;11349;53.412;-1.328;2023-11-21T08:52:19;6.70;;;1.60;;
22363;SDS011;11349;53.412;-1.328;2023-11-21T08:54:51;4.25;;;1.60;;
22363;SDS011;11349;53.412;-1.328;2023-11-21T08:57:24;8.98;;;1.77;;
22363;SDS011;11349;53.412;-1.328;2023-11-21T08:59:50;7.03;;;2.08;;
22363;SDS011;11349;53.412;-1.328;2023-11-21T09:02:25;9.55;;;2.03;;
22363;SDS011;11349;53.412;-1.328;2023-11-21T09:04:51;6.40;;;1.75;;
22363;SDS011;11349;53.412;-1.328;2023-11-21T09:07:20;6.55;;;1.65;;
22363;SDS011;11349;53.412;-1.328;2023-11-21T09:09:47;7.20;;;2.00;;
22363;SDS011;11349;53.412;-1.328;2023-11-21T09:12:13;8.15;;;1.63;;
22363;SDS011;11349;53.412;-1.328;2023-11-21T09:14:39;5.57;;;2.00;;
22363;SDS011;11349;53.412;-1.328;2023-11-21T09:17:05;6.82;;;1.80;;
22363;SDS011;11349;53.412;-1.328;2023-11-21T09:19:39;6.40;;;2.28;;
22363;SDS011;11349;53.412;-1.328;2023-11-21T09:22:05;8.70;;;1.98;;
22363;SDS011;11349;53.412;-1.328;2023-11-21T09:24:34;6.82;;;2.00;;
22363;SDS011;11349;53.412;-1.328;2023-11-21T09:27:00;11.18;;;3.03;;
22363;SDS011;11349;53.412;-1.328;2023-11-21T09:29:26;7.65;;;2.30;;
22363;SDS011;11349;53.412;-1.328;2023-11-21T09:31:52;10.35;;;2.17;;
22363;SDS011;11349;53.412;-1.328;2023-11-21T09:34:20;10.75;;;2.38;;
22363;SDS011;11349;53.412;-1.328;2023-11-21T09:36:46;8.07;;;2.00;;
22363;SDS011;11349;53.412;-1.328;2023-11-21T09:39:12;8.23;;;1.85;;
22363;SDS011;11349;53.412;-1.328;2023-11-21T09:41:50;9.98;;;2.20;;
22363;SDS011;11349;53.412;-1.328;2023-11-21T09:44:22;6.68;;;1.90;;
22363;SDS011;11349;53.412;-1.328;2023-11-21T09:46:59;9.77;;;2.63;;
22363;SDS011;11349;53.412;-1.328;2023-11-21T09:49:25;12.48;;;2.80;;
22363;SDS011;11349;53.412;-1.328;2023-11-21T09:51:53;10.88;;;1.92;;
22363;SDS011;11349;53.412;-1.328;2023-11-21T09:54:23;7.63;;;1.85;;
22363;SDS011;11349;53.412;-1.328;2023-11-21T09:56:50;11.13;;;2.28;;
22363;SDS011;11349;53.412;-1.328;2023-11-21T09:59:16;5.97;;;1.60;;
22363;SDS011;11349;53.412;-1.328;2023-11-21T10:01:42;8.48;;;2.20;;
22363;SDS011;11349;53.412;-1.328;2023-11-21T10:04:08;8.75;;;1.98;;
22363;SDS011;11349;53.412;-1.328;2023-11-21T10:06:40;10.13;;;2.35;;
22363;SDS011;11349;53.412;-1.328;2023-11-21T10:09:10;12.38;;;2.35;;
22363;SDS011;11349;53.412;-1.328;2023-11-21T10:11:43;9.88;;;2.58;;
22363;SDS011;11349;53.412;-1.328;2023-11-21T10:14:12;10.05;;;2.45;;
22363;SDS011;11349;53.412;-1.328;2023-11-21T10:16:41;9.65;;;2.00;;
22363;SDS011;11349;53.412;-1.328;2023-11-21T10:19:12;8.73;;;2.17;;
22363;SDS011;11349;53.412;-1.328;2023-11-21T10:21:39;10.15;;;2.30;;
22363;SDS011;11349;53.412;-1.328;2023-11-21T10:24:05;7.43;;;1.85;;
22363;SDS011;11349;53.412;-1.328;2023-11-21T10:26:31;11.50;;;2.03;;
22363;SDS011;11349;53.412;-1.328;2023-11-21T10:28:59;10.10;;;2.25;;
22363;SDS011;11349;53.412;-1.328;2023-11-21T10:31:29;10.23;;;2.15;;
22363;SDS011;11349;53.412;-1.328;2023-11-21T10:36:40;12.88;;;1.92;;
22363;SDS011;11349;53.412;-1.328;2023-11-21T10:39:06;9.55;;;2.60;;
22363;SDS011;11349;53.412;-1.328;2023-11-21T10:41:32;8.48;;;2.22;;
22363;SDS011;11349;53.412;-1.328;2023-11-21T10:44:00;6.93;;;1.90;;
22363;SDS011;11349;53.412;-1.328;2023-11-21T10:46:29;13.77;;;1.90;;
22363;SDS011;11349;53.412;-1.328;2023-11-21T10:48:55;11.52;;;2.90;;
22363;SDS011;11349;53.412;-1.328;2023-11-21T10:51:21;14.63;;;2.33;;
22363;SDS011;11349;53.412;-1.328;2023-11-21T10:53:49;9.05;;;1.63;;
22363;SDS011;11349;53.412;-1.328;2023-11-21T10:56:18;7.20;;;1.90;;
22363;SDS011;11349;53.412;-1.328;2023-11-21T10:58:46;8.60;;;1.90;;
22363;SDS011;11349;53.412;-1.328;2023-11-21T11:01:19;8.10;;;1.90;;
22363;SDS011;11349;53.412;-1.328;2023-11-21T11:03:48;14.40;;;2.17;;
22363;SDS011;11349;53.412;-1.328;2023-11-21T11:06:15;16.60;;;3.05;;
22363;SDS011;11349;53.412;-1.328;2023-11-21T11:08:41;9.65;;;2.35;;
22363;SDS011;11349;53.412;-1.328;2023-11-21T11:11:07;11.50;;;1.90;;
22363;SDS011;11349;53.412;-1.328;2023-11-21T11:13:35;8.38;;;1.77;;
22363;SDS011;11349;53.412;-1.328;2023-11-21T11:16:02;9.98;;;1.60;;
22363;SDS011;11349;53.412;-1.328;2023-11-21T11:18:32;17.25;;;2.28;;
22363;SDS011;11349;53.412;-1.328;2023-11-21T11:21:05;12.43;;;2.70;;
22363;SDS011;11349;53.412;-1.328;2023-11-21T11:23:49;7.18;;;2.10;;
22363;SDS011;11349;53.412;-1.328;2023-11-21T11:26:32;9.60;;;1.90;;
22363;SDS011;11349;53.412;-1.328;2023-11-21T11:31:37;8.15;;;3.08;;
22363;SDS011;11349;53.412;-1.328;2023-11-21T11:34:40;14.25;;;2.15;;
22363;SDS011;11349;53.412;-1.328;2023-11-21T11:37:11;7.07;;;1.65;;
22363;SDS011;11349;53.412;-1.328;2023-11-21T11:39:41;9.02;;;2.00;;
22363;SDS011;11349;53.412;-1.328;2023-11-21T11:42:15;9.43;;;1.77;;
22363;SDS011;11349;53.412;-1.328;2023-11-21T11:47:30;6.78;;;1.77;;
22363;SDS011;11349;53.412;-1.328;2023-11-21T11:52:48;7.25;;;1.17;;
22363;SDS011;11349;53.412;-1.328;2023-11-21T11:55:17;6.32;;;1.60;;
22363;SDS011;11349;53.412;-1.328;2023-11-21T11:57:48;8.93;;;2.05;;
22363;SDS011;11349;53.412;-1.328;2023-11-21T12:00:20;10.35;;;2.50;;
22363;SDS011;11349;53.412;-1.328;2023-11-21T12:02:55;6.68;;;1.88;;
22363;SDS011;11349;53.412;-1.328;2023-11-21T12:05:27;7.28;;;1.73;;
22363;SDS011;11349;53.412;-1.328;2023-11-21T12:07:54;8.10;;;2.10;;
22363;SDS011;11349;53.412;-1.328;2023-11-21T12:10:23;6.65;;;1.90;;
22363;SDS011;11349;53.412;-1.328;2023-11-21T12:13:08;8.60;;;1.67;;
22363;SDS011;11349;53.412;-1.328;2023-11-21T12:15:35;7.18;;;1.75;;
22363;SDS011;11349;53.412;-1.328;2023-11-21T12:18:02;16.52;;;4.68;;
22363;SDS011;11349;53.412;-1.328;2023-11-21T12:20:28;19.33;;;6.57;;
22363;SDS011;11349;53.412;-1.328;2023-11-21T12:22:56;14.25;;;3.38;;
22363;SDS011;11349;53.412;-1.328;2023-11-21T12:25:30;18.02;;;4.63;;
22363;SDS011;11349;53.412;-1.328;2023-11-21T12:27:57;26.88;;;7.53;;
22363;SDS011;11349;53.412;-1.328;2023-11-21T12:30:25;20.98;;;6.78;;
22363;SDS011;11349;53.412;-1.328;2023-11-21T12:32:56;22.25;;;6.75;;
22363;SDS011;11349;53.412;-1.328;2023-11-21T12:35:26;25.10;;;7.30;;
22363;SDS011;11349;53.412;-1.328;2023-11-21T12:37:54;16.83;;;5.05;;
22363;SDS011;11349;53.412;-1.328;2023-11-21T12:40:23;13.80;;;4.28;;
22363;SDS011;11349;53.412;-1.328;2023-11-21T12:42:55;9.57;;;3.15;;
22363;SDS011;11349;53.412;-1.328;2023-11-21T12:45:28;7.80;;;2.70;;
22363;SDS011;11349;53.412;-1.328;2023-11-21T12:47:56;9.05;;;2.47;;
22363;SDS011;11349;53.412;-1.328;2023-11-21T12:50:28;6.75;;;1.63;;
22363;SDS011;11349;53.412;-1.328;2023-11-21T12:53:11;11.35;;;1.88;;
22363;SDS011;11349;53.412;-1.328;2023-11-21T12:55:38;4.45;;;1.38;;
22363;SDS011;11349;53.412;-1.328;2023-11-21T12:58:05;7.80;;;1.90;;
22363;SDS011;11349;53.412;-1.328;2023-11-21T13:03:05;10.40;;;2.13;;
22363;SDS011;11349;53.412;-1.328;2023-11-21T13:05:36;7.80;;;2.08;;
22363;SDS011;11349;53.412;-1.328;2023-11-21T13:08:10;7.60;;;2.03;;
22363;SDS011;11349;53.412;-1.328;2023-11-21T13:10:42;7.00;;;1.30;;
22363;SDS011;11349;53.412;-1.328;2023-11-21T13:13:11;7.10;;;1.50;;
22363;SDS011;11349;53.412;-1.328;2023-11-21T13:15:48;6.50;;;1.27;;
22363;SDS011;11349;53.412;-1.328;2023-11-21T13:18:24;6.00;;;1.60;;
22363;SDS011;11349;53.412;-1.328;2023-11-21T13:20:56;9.77;;;1.73;;
22363;SDS011;11349;53.412;-1.328;2023-11-21T13:23:23;6.53;;;1.80;;
22363;SDS011;11349;53.412;-1.328;2023-11-21T13:25:50;7.30;;;1.70;;
22363;SDS011;11349;53.412;-1.328;2023-11-21T13:28:16;9.43;;;1.90;;
22363;SDS011;11349;53.412;-1.328;2023-11-21T13:30:45;8.68;;;2.00;;
22363;SDS011;11349;53.412;-1.328;2023-11-21T13:33:13;9.52;;;3.13;;
22363;SDS011;11349;53.412;-1.328;2023-11-21T13:35:43;4.18;;;1.85;;
22363;SDS011;11349;53.412;-1.328;2023-11-21T13:38:14;7.35;;;2.08;;
22363;SDS011;11349;53.412;-1.328;2023-11-21T13:40:42;8.65;;;1.90;;
22363;SDS011;11349;53.412;-1.328;2023-11-21T13:43:17;11.07;;;1.65;;
22363;SDS011;11349;53.412;-1.328;2023-11-21T13:45:46;8.63;;;1.50;;
22363;SDS011;11349;53.412;-1.328;2023-11-21T13:48:15;7.40;;;2.08;;
22363;SDS011;11349;53.412;-1.328;2023-11-21T13:50:50;8.50;;;1.55;;
22363;SDS011;11349;53.412;-1.328;2023-11-21T13:53:34;7.45;;;1.60;;
22363;SDS011;11349;53.412;-1.328;2023-11-21T13:56:03;7.88;;;1.60;;
22363;SDS011;11349;53.412;-1.328;2023-11-21T13:58:29;5.60;;;1.20;;
22363;SDS011;11349;53.412;-1.328;2023-11-21T14:01:15;3.38;;;1.25;;
22363;SDS011;11349;53.412;-1.328;2023-11-21T14:03:57;10.93;;;4.93;;
22363;SDS011;11349;53.412;-1.328;2023-11-21T14:06:33;8.15;;;3.50;;
22363;SDS011;11349;53.412;-1.328;2023-11-21T14:09:05;10.77;;;4.47;;
22363;SDS011;11349;53.412;-1.328;2023-11-21T14:11:32;7.03;;;3.03;;
22363;SDS011;11349;53.412;-1.328;2023-11-21T14:14:02;4.93;;;1.52;;
22363;SDS011;11349;53.412;-1.328;2023-11-21T14:16:28;5.72;;;1.48;;
22363;SDS011;11349;53.412;-1.328;2023-11-21T14:18:53;6.20;;;1.60;;
22363;SDS011;11349;53.412;-1.328;2023-11-21T14:21:28;8.00;;;1.50;;
22363;SDS011;11349;53.412;-1.328;2023-11-21T14:23:54;7.10;;;1.33;;
22363;SDS011;11349;53.412;-1.328;2023-11-21T14:26:20;5.18;;;1.27;;
22363;SDS011;11349;53.412;-1.328;2023-11-21T14:28:48;7.05;;;1.30;;
22363;SDS011;11349;53.412;-1.328;2023-11-21T14:31:14;5.00;;;1.60;;
22363;SDS011;11349;53.412;-1.328;2023-11-21T14:33:42;4.50;;;1.60;;
22363;SDS011;11349;53.412;-1.328;2023-11-21T14:36:10;8.90;;;3.58;;
22363;SDS011;11349;53.412;-1.328;2023-11-21T14:38:36;4.47;;;2.03;;
22363;SDS011;11349;53.412;-1.328;2023-11-21T14:41:04;6.13;;;1.90;;
22363;SDS011;11349;53.412;-1.328;2023-11-21T14:43:33;6.53;;;1.50;;
22363;SDS011;11349;53.412;-1.328;2023-11-21T14:46:01;4.75;;;1.30;;
22363;SDS011;11349;53.412;-1.328;2023-11-21T14:48:28;3.08;;;1.00;;
22363;SDS011;11349;53.412;-1.328;2023-11-21T14:51:18;7.03;;;1.20;;